sensor_id;sensor_type;location;lat;lon;timestamp;P1;durP1;ratioP1;P2;durP2;ratioP2
37239;SDS011;23130;48.760;9.178;2023-04-25T00:02:24;2.85;;;1.08;;
37239;SDS011;23130;48.760;9.178;2023-04-25T00:04:50;2.30;;;1.33;;
37239;SDS011;23130;48.760;9.178;2023-04-25T00:07:17;2.67;;;1.27;;
37239;SDS011;23130;48.760;9.178;2023-04-25T00:09:42;2.22;;;1.23;;
37239;SDS011;23130;48.760;9.178;2023-04-25T00:12:08;2.50;;;0.80;;
37239;SDS011;23130;48.760;9.178;2023-04-25T00:14:34;3.08;;;1.38;;
37239;SDS011;23130;48.760;9.178;2023-04-25T00:17:00;1.63;;;0.85;;
37239;SDS011;23130;48.760;9.178;2023-04-25T00:19:27;2.60;;;0.85;;
37239;SDS011;23130;48.760;9.178;2023-04-25T00:21:54;1.85;;;1.17;;
37239;SDS011;23130;48.760;9.178;2023-04-25T00:24:20;1.92;;;1.20;;
37239;SDS011;23130;48.760;9.178;2023-04-25T00:26:46;3.17;;;1.30;;
37239;SDS011;23130;48.760;9.178;2023-04-25T00:29:11;2.13;;;1.40;;
37239;SDS011;23130;48.760;9.178;2023-04-25T00:31:37;2.53;;;1.17;;
37239;SDS011;23130;48.760;9.178;2023-04-25T00:34:02;3.10;;;1.48;;
37239;SDS011;23130;48.760;9.178;2023-04-25T00:36:28;2.00;;;1.20;;
37239;SDS011;23130;48.760;9.178;2023-04-25T00:38:54;3.13;;;1.30;;
37239;SDS011;23130;48.760;9.178;2023-04-25T00:41:20;2.58;;;1.60;;
37239;SDS011;23130;48.760;9.178;2023-04-25T00:43:46;2.65;;;1.17;;
37239;SDS011;23130;48.760;9.178;2023-04-25T00:46:13;4.00;;;1.30;;
37239;SDS011;23130;48.760;9.178;2023-04-25T00:48:39;3.60;;;1.45;;
37239;SDS011;23130;48.760;9.178;2023-04-25T00:51:04;3.90;;;1.50;;
37239;SDS011;23130;48.760;9.178;2023-04-25T00:53:31;3.13;;;1.10;;
37239;SDS011;23130;48.760;9.178;2023-04-25T00:55:57;2.95;;;1.92;;
37239;SDS011;23130;48.760;9.178;2023-04-25T00:58:23;5.10;;;1.52;;
37239;SDS011;23130;48.760;9.178;2023-04-25T01:00:50;4.70;;;1.50;;
37239;SDS011;23130;48.760;9.178;2023-04-25T01:03:19;9.75;;;1.60;;
37239;SDS011;23130;48.760;9.178;2023-04-25T01:05:45;4.60;;;1.60;;
37239;SDS011;23130;48.760;9.178;2023-04-25T01:08:11;4.38;;;1.48;;
37239;SDS011;23130;48.760;9.178;2023-04-25T01:10:37;2.85;;;1.77;;
37239;SDS011;23130;48.760;9.178;2023-04-25T01:13:03;2.72;;;1.73;;
37239;SDS011;23130;48.760;9.178;2023-04-25T01:15:29;3.03;;;1.88;;
37239;SDS011;23130;48.760;9.178;2023-04-25T01:17:54;2.85;;;1.65;;
37239;SDS011;23130;48.760;9.178;2023-04-25T01:20:21;2.53;;;1.60;;
37239;SDS011;23130;48.760;9.178;2023-04-25T01:22:48;3.15;;;1.95;;
37239;SDS011;23130;48.760;9.178;2023-04-25T01:25:14;4.80;;;1.80;;
37239;SDS011;23130;48.760;9.178;2023-04-25T01:27:40;3.75;;;1.85;;
37239;SDS011;23130;48.760;9.178;2023-04-25T01:30:06;2.30;;;1.45;;
37239;SDS011;23130;48.760;9.178;2023-04-25T01:32:32;5.97;;;1.80;;
37239;SDS011;23130;48.760;9.178;2023-04-25T01:35:06;4.32;;;1.85;;
37239;SDS011;23130;48.760;9.178;2023-04-25T01:37:35;4.15;;;1.60;;
37239;SDS011;23130;48.760;9.178;2023-04-25T01:40:02;2.63;;;1.35;;
37239;SDS011;23130;48.760;9.178;2023-04-25T01:42:30;4.03;;;1.65;;
37239;SDS011;23130;48.760;9.178;2023-04-25T01:44:59;4.35;;;1.73;;
37239;SDS011;23130;48.760;9.178;2023-04-25T01:47:25;3.60;;;2.05;;
37239;SDS011;23130;48.760;9.178;2023-04-25T01:49:51;4.72;;;2.08;;
37239;SDS011;23130;48.760;9.178;2023-04-25T01:52:17;3.95;;;1.80;;
37239;SDS011;23130;48.760;9.178;2023-04-25T01:54:42;4.55;;;2.38;;
37239;SDS011;23130;48.760;9.178;2023-04-25T01:57:12;4.07;;;1.58;;
37239;SDS011;23130;48.760;9.178;2023-04-25T01:59:38;3.63;;;2.00;;
37239;SDS011;23130;48.760;9.178;2023-04-25T02:02:04;2.92;;;1.75;;
37239;SDS011;23130;48.760;9.178;2023-04-25T02:04:32;3.85;;;1.88;;
37239;SDS011;23130;48.760;9.178;2023-04-25T02:06:58;5.32;;;1.90;;
37239;SDS011;23130;48.760;9.178;2023-04-25T02:09:24;3.70;;;2.13;;
37239;SDS011;23130;48.760;9.178;2023-04-25T02:11:49;4.03;;;2.13;;
37239;SDS011;23130;48.760;9.178;2023-04-25T02:14:15;3.63;;;1.85;;
37239;SDS011;23130;48.760;9.178;2023-04-25T02:16:40;3.10;;;2.15;;
37239;SDS011;23130;48.760;9.178;2023-04-25T02:19:08;3.63;;;2.08;;
37239;SDS011;23130;48.760;9.178;2023-04-25T02:21:35;3.05;;;1.83;;
37239;SDS011;23130;48.760;9.178;2023-04-25T02:24:01;3.22;;;1.73;;
37239;SDS011;23130;48.760;9.178;2023-04-25T02:26:26;3.15;;;1.73;;
37239;SDS011;23130;48.760;9.178;2023-04-25T02:28:52;2.85;;;1.52;;
37239;SDS011;23130;48.760;9.178;2023-04-25T02:31:17;1.77;;;1.25;;
37239;SDS011;23130;48.760;9.178;2023-04-25T02:33:43;2.20;;;1.33;;
37239;SDS011;23130;48.760;9.178;2023-04-25T02:36:09;2.78;;;1.55;;
37239;SDS011;23130;48.760;9.178;2023-04-25T02:38:35;1.92;;;1.10;;
37239;SDS011;23130;48.760;9.178;2023-04-25T02:41:00;3.20;;;1.50;;
37239;SDS011;23130;48.760;9.178;2023-04-25T02:43:26;2.95;;;1.63;;
37239;SDS011;23130;48.760;9.178;2023-04-25T02:45:52;1.90;;;1.17;;
37239;SDS011;23130;48.760;9.178;2023-04-25T02:48:17;2.60;;;1.50;;
37239;SDS011;23130;48.760;9.178;2023-04-25T02:50:43;2.28;;;1.30;;
37239;SDS011;23130;48.760;9.178;2023-04-25T02:53:08;2.22;;;1.48;;
37239;SDS011;23130;48.760;9.178;2023-04-25T02:55:34;3.08;;;1.27;;
37239;SDS011;23130;48.760;9.178;2023-04-25T02:57:59;2.15;;;1.33;;
37239;SDS011;23130;48.760;9.178;2023-04-25T03:00:25;2.75;;;1.33;;
37239;SDS011;23130;48.760;9.178;2023-04-25T03:02:50;2.22;;;1.48;;
37239;SDS011;23130;48.760;9.178;2023-04-25T03:05:16;4.43;;;1.60;;
37239;SDS011;23130;48.760;9.178;2023-04-25T03:07:42;4.05;;;1.70;;
37239;SDS011;23130;48.760;9.178;2023-04-25T03:10:09;2.03;;;1.40;;
37239;SDS011;23130;48.760;9.178;2023-04-25T03:12:35;3.00;;;1.70;;
37239;SDS011;23130;48.760;9.178;2023-04-25T03:15:01;5.65;;;2.03;;
37239;SDS011;23130;48.760;9.178;2023-04-25T03:17:27;3.25;;;1.45;;
37239;SDS011;23130;48.760;9.178;2023-04-25T03:19:53;4.63;;;1.50;;
37239;SDS011;23130;48.760;9.178;2023-04-25T03:22:19;2.47;;;1.70;;
37239;SDS011;23130;48.760;9.178;2023-04-25T03:24:44;3.47;;;1.45;;
37239;SDS011;23130;48.760;9.178;2023-04-25T03:27:10;4.57;;;1.42;;
37239;SDS011;23130;48.760;9.178;2023-04-25T03:29:36;5.30;;;1.83;;
37239;SDS011;23130;48.760;9.178;2023-04-25T03:32:01;3.00;;;1.63;;
37239;SDS011;23130;48.760;9.178;2023-04-25T03:34:27;3.45;;;1.50;;
37239;SDS011;23130;48.760;9.178;2023-04-25T03:36:55;3.63;;;1.52;;
37239;SDS011;23130;48.760;9.178;2023-04-25T03:39:21;3.15;;;1.77;;
37239;SDS011;23130;48.760;9.178;2023-04-25T03:41:46;2.20;;;1.70;;
37239;SDS011;23130;48.760;9.178;2023-04-25T03:44:12;2.10;;;1.30;;
37239;SDS011;23130;48.760;9.178;2023-04-25T03:46:38;2.80;;;1.58;;
37239;SDS011;23130;48.760;9.178;2023-04-25T03:49:03;3.78;;;1.73;;
37239;SDS011;23130;48.760;9.178;2023-04-25T03:51:29;2.08;;;1.55;;
37239;SDS011;23130;48.760;9.178;2023-04-25T03:53:55;3.92;;;1.65;;
37239;SDS011;23130;48.760;9.178;2023-04-25T03:56:21;3.15;;;2.55;;
37239;SDS011;23130;48.760;9.178;2023-04-25T03:58:47;2.80;;;1.60;;
37239;SDS011;23130;48.760;9.178;2023-04-25T04:01:12;2.95;;;1.45;;
37239;SDS011;23130;48.760;9.178;2023-04-25T04:03:38;3.47;;;1.90;;
37239;SDS011;23130;48.760;9.178;2023-04-25T04:06:04;4.30;;;2.33;;
37239;SDS011;23130;48.760;9.178;2023-04-25T04:08:30;6.03;;;1.95;;
37239;SDS011;23130;48.760;9.178;2023-04-25T04:10:59;3.03;;;1.42;;
37239;SDS011;23130;48.760;9.178;2023-04-25T04:13:26;3.72;;;2.03;;
37239;SDS011;23130;48.760;9.178;2023-04-25T04:15:52;3.22;;;1.90;;
37239;SDS011;23130;48.760;9.178;2023-04-25T04:18:18;3.28;;;1.70;;
37239;SDS011;23130;48.760;9.178;2023-04-25T04:20:44;4.57;;;2.15;;
37239;SDS011;23130;48.760;9.178;2023-04-25T04:23:09;2.58;;;1.92;;
37239;SDS011;23130;48.760;9.178;2023-04-25T04:25:35;3.72;;;2.50;;
37239;SDS011;23130;48.760;9.178;2023-04-25T04:28:01;6.70;;;2.60;;
37239;SDS011;23130;48.760;9.178;2023-04-25T04:30:27;4.60;;;2.85;;
37239;SDS011;23130;48.760;9.178;2023-04-25T04:32:56;3.38;;;2.25;;
37239;SDS011;23130;48.760;9.178;2023-04-25T04:35:22;3.55;;;2.00;;
37239;SDS011;23130;48.760;9.178;2023-04-25T04:37:48;3.38;;;1.77;;
37239;SDS011;23130;48.760;9.178;2023-04-25T04:40:14;4.15;;;2.10;;
37239;SDS011;23130;48.760;9.178;2023-04-25T04:42:41;5.22;;;1.70;;
37239;SDS011;23130;48.760;9.178;2023-04-25T04:45:07;4.38;;;2.28;;
37239;SDS011;23130;48.760;9.178;2023-04-25T04:47:33;7.65;;;1.80;;
37239;SDS011;23130;48.760;9.178;2023-04-25T04:50:01;3.47;;;2.28;;
37239;SDS011;23130;48.760;9.178;2023-04-25T04:52:28;3.42;;;2.65;;
37239;SDS011;23130;48.760;9.178;2023-04-25T04:54:53;4.68;;;2.17;;
37239;SDS011;23130;48.760;9.178;2023-04-25T04:57:19;4.47;;;2.60;;
37239;SDS011;23130;48.760;9.178;2023-04-25T04:59:44;4.22;;;2.40;;
37239;SDS011;23130;48.760;9.178;2023-04-25T05:02:10;5.10;;;2.40;;
37239;SDS011;23130;48.760;9.178;2023-04-25T05:04:36;6.78;;;2.13;;
37239;SDS011;23130;48.760;9.178;2023-04-25T05:07:01;4.65;;;2.20;;
37239;SDS011;23130;48.760;9.178;2023-04-25T05:09:27;3.83;;;2.22;;
37239;SDS011;23130;48.760;9.178;2023-04-25T05:11:53;4.85;;;2.05;;
37239;SDS011;23130;48.760;9.178;2023-04-25T05:14:18;7.65;;;2.65;;
37239;SDS011;23130;48.760;9.178;2023-04-25T05:16:44;3.58;;;1.67;;
37239;SDS011;23130;48.760;9.178;2023-04-25T05:19:09;3.88;;;2.38;;
37239;SDS011;23130;48.760;9.178;2023-04-25T05:21:35;3.45;;;2.25;;
37239;SDS011;23130;48.760;9.178;2023-04-25T05:24:01;4.28;;;2.72;;
37239;SDS011;23130;48.760;9.178;2023-04-25T05:26:26;3.03;;;1.90;;
37239;SDS011;23130;48.760;9.178;2023-04-25T05:28:56;2.67;;;2.00;;
37239;SDS011;23130;48.760;9.178;2023-04-25T05:31:22;5.82;;;2.72;;
37239;SDS011;23130;48.760;9.178;2023-04-25T05:33:47;4.20;;;2.60;;
37239;SDS011;23130;48.760;9.178;2023-04-25T05:36:13;3.13;;;1.95;;
37239;SDS011;23130;48.760;9.178;2023-04-25T05:38:38;4.72;;;2.90;;
37239;SDS011;23130;48.760;9.178;2023-04-25T05:41:04;4.03;;;2.50;;
37239;SDS011;23130;48.760;9.178;2023-04-25T05:43:29;2.60;;;1.95;;
37239;SDS011;23130;48.760;9.178;2023-04-25T05:45:55;3.75;;;2.20;;
37239;SDS011;23130;48.760;9.178;2023-04-25T05:48:21;4.97;;;2.08;;
37239;SDS011;23130;48.760;9.178;2023-04-25T05:50:46;3.47;;;1.90;;
37239;SDS011;23130;48.760;9.178;2023-04-25T05:53:12;4.15;;;1.98;;
37239;SDS011;23130;48.760;9.178;2023-04-25T05:55:37;3.45;;;1.92;;
37239;SDS011;23130;48.760;9.178;2023-04-25T05:58:04;8.32;;;3.05;;
37239;SDS011;23130;48.760;9.178;2023-04-25T06:00:30;3.75;;;1.98;;
37239;SDS011;23130;48.760;9.178;2023-04-25T06:02:56;4.93;;;2.15;;
37239;SDS011;23130;48.760;9.178;2023-04-25T06:05:21;4.88;;;2.78;;
37239;SDS011;23130;48.760;9.178;2023-04-25T06:07:47;3.00;;;1.92;;
37239;SDS011;23130;48.760;9.178;2023-04-25T06:10:12;3.38;;;1.75;;
37239;SDS011;23130;48.760;9.178;2023-04-25T06:12:38;3.72;;;2.22;;
37239;SDS011;23130;48.760;9.178;2023-04-25T06:15:04;3.95;;;1.85;;
37239;SDS011;23130;48.760;9.178;2023-04-25T06:17:30;2.92;;;1.70;;
37239;SDS011;23130;48.760;9.178;2023-04-25T06:19:56;3.45;;;1.95;;
37239;SDS011;23130;48.760;9.178;2023-04-25T06:22:21;5.43;;;2.35;;
37239;SDS011;23130;48.760;9.178;2023-04-25T06:24:47;4.40;;;2.10;;
37239;SDS011;23130;48.760;9.178;2023-04-25T06:27:13;2.75;;;1.70;;
37239;SDS011;23130;48.760;9.178;2023-04-25T06:29:38;4.07;;;1.80;;
37239;SDS011;23130;48.760;9.178;2023-04-25T06:32:04;2.70;;;1.70;;
37239;SDS011;23130;48.760;9.178;2023-04-25T06:34:30;2.88;;;1.83;;
37239;SDS011;23130;48.760;9.178;2023-04-25T06:36:55;2.47;;;1.80;;
37239;SDS011;23130;48.760;9.178;2023-04-25T06:39:21;2.65;;;1.77;;
37239;SDS011;23130;48.760;9.178;2023-04-25T06:41:48;2.80;;;2.33;;
37239;SDS011;23130;48.760;9.178;2023-04-25T06:44:14;2.92;;;2.00;;
37239;SDS011;23130;48.760;9.178;2023-04-25T06:46:40;4.65;;;2.17;;
37239;SDS011;23130;48.760;9.178;2023-04-25T06:49:06;3.75;;;1.95;;
37239;SDS011;23130;48.760;9.178;2023-04-25T06:51:31;3.00;;;1.85;;
37239;SDS011;23130;48.760;9.178;2023-04-25T06:53:57;4.47;;;1.60;;
37239;SDS011;23130;48.760;9.178;2023-04-25T06:56:22;4.00;;;2.08;;
37239;SDS011;23130;48.760;9.178;2023-04-25T06:58:48;5.07;;;2.47;;
37239;SDS011;23130;48.760;9.178;2023-04-25T07:01:14;3.53;;;1.50;;
37239;SDS011;23130;48.760;9.178;2023-04-25T07:03:40;2.50;;;1.65;;
37239;SDS011;23130;48.760;9.178;2023-04-25T07:06:06;3.25;;;2.28;;
37239;SDS011;23130;48.760;9.178;2023-04-25T07:08:31;3.47;;;1.70;;
37239;SDS011;23130;48.760;9.178;2023-04-25T07:10:57;2.55;;;1.73;;
37239;SDS011;23130;48.760;9.178;2023-04-25T07:13:22;2.72;;;2.20;;
37239;SDS011;23130;48.760;9.178;2023-04-25T07:15:48;3.88;;;2.17;;
37239;SDS011;23130;48.760;9.178;2023-04-25T07:18:14;3.60;;;2.13;;
37239;SDS011;23130;48.760;9.178;2023-04-25T07:20:40;3.08;;;2.45;;
37239;SDS011;23130;48.760;9.178;2023-04-25T07:23:05;5.30;;;2.63;;
37239;SDS011;23130;48.760;9.178;2023-04-25T07:25:31;5.75;;;3.08;;
37239;SDS011;23130;48.760;9.178;2023-04-25T07:27:57;3.83;;;2.92;;
37239;SDS011;23130;48.760;9.178;2023-04-25T07:30:23;4.32;;;3.00;;
37239;SDS011;23130;48.760;9.178;2023-04-25T07:32:49;4.53;;;3.00;;
37239;SDS011;23130;48.760;9.178;2023-04-25T07:35:15;4.90;;;3.20;;
37239;SDS011;23130;48.760;9.178;2023-04-25T07:37:41;5.10;;;3.55;;
37239;SDS011;23130;48.760;9.178;2023-04-25T07:40:06;4.88;;;3.38;;
37239;SDS011;23130;48.760;9.178;2023-04-25T07:42:34;4.03;;;2.60;;
37239;SDS011;23130;48.760;9.178;2023-04-25T07:45:00;4.63;;;3.30;;
37239;SDS011;23130;48.760;9.178;2023-04-25T07:47:26;6.38;;;3.70;;
37239;SDS011;23130;48.760;9.178;2023-04-25T07:49:51;5.97;;;2.85;;
37239;SDS011;23130;48.760;9.178;2023-04-25T07:52:17;5.15;;;2.95;;
37239;SDS011;23130;48.760;9.178;2023-04-25T07:54:42;6.45;;;3.20;;
37239;SDS011;23130;48.760;9.178;2023-04-25T07:57:08;5.90;;;3.55;;
37239;SDS011;23130;48.760;9.178;2023-04-25T07:59:34;7.13;;;4.07;;
37239;SDS011;23130;48.760;9.178;2023-04-25T08:02:00;4.45;;;3.13;;
37239;SDS011;23130;48.760;9.178;2023-04-25T08:04:26;4.50;;;3.33;;
37239;SDS011;23130;48.760;9.178;2023-04-25T08:06:52;6.53;;;4.22;;
37239;SDS011;23130;48.760;9.178;2023-04-25T08:09:18;5.47;;;4.00;;
37239;SDS011;23130;48.760;9.178;2023-04-25T08:11:44;6.38;;;3.50;;
37239;SDS011;23130;48.760;9.178;2023-04-25T08:14:11;6.63;;;3.95;;
37239;SDS011;23130;48.760;9.178;2023-04-25T08:16:37;6.80;;;4.28;;
37239;SDS011;23130;48.760;9.178;2023-04-25T08:19:02;5.75;;;3.35;;
37239;SDS011;23130;48.760;9.178;2023-04-25T08:21:28;7.47;;;4.35;;
37239;SDS011;23130;48.760;9.178;2023-04-25T08:23:54;6.95;;;4.25;;
37239;SDS011;23130;48.760;9.178;2023-04-25T08:26:19;6.63;;;4.45;;
37239;SDS011;23130;48.760;9.178;2023-04-25T08:28:45;7.00;;;4.35;;
37239;SDS011;23130;48.760;9.178;2023-04-25T08:31:11;6.22;;;4.03;;
37239;SDS011;23130;48.760;9.178;2023-04-25T08:33:37;8.52;;;3.75;;
37239;SDS011;23130;48.760;9.178;2023-04-25T08:36:02;8.45;;;4.35;;
37239;SDS011;23130;48.760;9.178;2023-04-25T08:38:28;7.50;;;4.38;;
37239;SDS011;23130;48.760;9.178;2023-04-25T08:40:54;8.32;;;3.92;;
37239;SDS011;23130;48.760;9.178;2023-04-25T08:43:21;7.65;;;4.05;;
37239;SDS011;23130;48.760;9.178;2023-04-25T08:45:50;6.13;;;4.15;;
37239;SDS011;23130;48.760;9.178;2023-04-25T08:48:19;6.95;;;4.70;;
37239;SDS011;23130;48.760;9.178;2023-04-25T08:50:46;8.60;;;4.20;;
37239;SDS011;23130;48.760;9.178;2023-04-25T08:55:50;5.75;;;3.60;;
37239;SDS011;23130;48.760;9.178;2023-04-25T08:58:17;5.00;;;3.47;;
37239;SDS011;23130;48.760;9.178;2023-04-25T09:00:43;6.50;;;3.47;;
37239;SDS011;23130;48.760;9.178;2023-04-25T09:03:11;8.02;;;4.60;;
37239;SDS011;23130;48.760;9.178;2023-04-25T09:05:37;6.10;;;4.00;;
37239;SDS011;23130;48.760;9.178;2023-04-25T09:08:05;6.75;;;3.85;;
37239;SDS011;23130;48.760;9.178;2023-04-25T09:10:31;7.75;;;4.38;;
37239;SDS011;23130;48.760;9.178;2023-04-25T09:15:53;5.75;;;3.53;;
37239;SDS011;23130;48.760;9.178;2023-04-25T09:18:24;6.00;;;4.05;;
37239;SDS011;23130;48.760;9.178;2023-04-25T09:20:55;6.30;;;4.40;;
37239;SDS011;23130;48.760;9.178;2023-04-25T09:23:22;7.53;;;4.55;;
37239;SDS011;23130;48.760;9.178;2023-04-25T09:25:48;6.68;;;4.63;;
37239;SDS011;23130;48.760;9.178;2023-04-25T09:28:15;6.50;;;4.30;;
37239;SDS011;23130;48.760;9.178;2023-04-25T09:30:41;7.97;;;4.53;;
37239;SDS011;23130;48.760;9.178;2023-04-25T09:33:07;7.40;;;4.88;;
37239;SDS011;23130;48.760;9.178;2023-04-25T09:35:43;7.07;;;4.57;;
37239;SDS011;23130;48.760;9.178;2023-04-25T09:38:10;7.57;;;5.47;;
37239;SDS011;23130;48.760;9.178;2023-04-25T09:43:10;8.05;;;5.68;;
37239;SDS011;23130;48.760;9.178;2023-04-25T09:45:48;5.10;;;3.08;;
37239;SDS011;23130;48.760;9.178;2023-04-25T09:48:20;5.18;;;3.65;;
37239;SDS011;23130;48.760;9.178;2023-04-25T09:53:33;4.13;;;2.92;;
37239;SDS011;23130;48.760;9.178;2023-04-25T09:55:59;5.15;;;3.25;;
37239;SDS011;23130;48.760;9.178;2023-04-25T09:58:25;5.05;;;3.20;;
37239;SDS011;23130;48.760;9.178;2023-04-25T10:00:55;6.93;;;3.65;;
37239;SDS011;23130;48.760;9.178;2023-04-25T10:03:25;5.30;;;3.28;;
37239;SDS011;23130;48.760;9.178;2023-04-25T10:05:51;6.55;;;4.30;;
37239;SDS011;23130;48.760;9.178;2023-04-25T10:08:18;5.68;;;3.42;;
37239;SDS011;23130;48.760;9.178;2023-04-25T10:10:44;3.95;;;2.70;;
37239;SDS011;23130;48.760;9.178;2023-04-25T10:13:11;5.80;;;2.15;;
37239;SDS011;23130;48.760;9.178;2023-04-25T10:15:39;2.78;;;1.83;;
37239;SDS011;23130;48.760;9.178;2023-04-25T10:18:06;2.80;;;1.23;;
37239;SDS011;23130;48.760;9.178;2023-04-25T10:20:32;2.80;;;1.75;;
37239;SDS011;23130;48.760;9.178;2023-04-25T10:23:09;2.40;;;1.65;;
37239;SDS011;23130;48.760;9.178;2023-04-25T10:25:38;2.47;;;1.63;;
37239;SDS011;23130;48.760;9.178;2023-04-25T10:28:05;2.65;;;1.33;;
37239;SDS011;23130;48.760;9.178;2023-04-25T10:30:31;2.63;;;1.15;;
37239;SDS011;23130;48.760;9.178;2023-04-25T10:32:56;1.92;;;1.00;;
37239;SDS011;23130;48.760;9.178;2023-04-25T10:35:26;2.38;;;1.40;;
37239;SDS011;23130;48.760;9.178;2023-04-25T10:37:56;2.15;;;1.25;;
37239;SDS011;23130;48.760;9.178;2023-04-25T10:40:27;2.10;;;1.30;;
37239;SDS011;23130;48.760;9.178;2023-04-25T10:42:53;2.53;;;1.10;;
37239;SDS011;23130;48.760;9.178;2023-04-25T10:45:20;1.33;;;1.00;;
37239;SDS011;23130;48.760;9.178;2023-04-25T10:47:46;1.33;;;0.80;;
37239;SDS011;23130;48.760;9.178;2023-04-25T10:50:12;3.03;;;1.20;;
37239;SDS011;23130;48.760;9.178;2023-04-25T10:52:41;2.78;;;1.40;;
37239;SDS011;23130;48.760;9.178;2023-04-25T10:55:07;3.38;;;1.08;;
37239;SDS011;23130;48.760;9.178;2023-04-25T10:57:36;1.33;;;0.70;;
37239;SDS011;23130;48.760;9.178;2023-04-25T11:02:41;3.75;;;2.65;;
37239;SDS011;23130;48.760;9.178;2023-04-25T11:05:33;5.78;;;3.25;;
37239;SDS011;23130;48.760;9.178;2023-04-25T11:07:58;7.22;;;2.75;;
37239;SDS011;23130;48.760;9.178;2023-04-25T11:10:28;5.40;;;3.20;;
37239;SDS011;23130;48.760;9.178;2023-04-25T11:12:55;6.05;;;2.65;;
37239;SDS011;23130;48.760;9.178;2023-04-25T11:15:21;4.38;;;2.75;;
37239;SDS011;23130;48.760;9.178;2023-04-25T11:17:47;5.15;;;2.45;;
37239;SDS011;23130;48.760;9.178;2023-04-25T11:20:12;4.75;;;2.70;;
37239;SDS011;23130;48.760;9.178;2023-04-25T11:22:39;5.50;;;2.45;;
37239;SDS011;23130;48.760;9.178;2023-04-25T11:25:08;4.38;;;1.98;;
37239;SDS011;23130;48.760;9.178;2023-04-25T11:27:37;3.60;;;2.58;;
37239;SDS011;23130;48.760;9.178;2023-04-25T11:30:10;4.00;;;2.25;;
37239;SDS011;23130;48.760;9.178;2023-04-25T11:32:40;3.88;;;2.20;;
37239;SDS011;23130;48.760;9.178;2023-04-25T11:35:07;5.90;;;2.78;;
37239;SDS011;23130;48.760;9.178;2023-04-25T11:37:33;3.72;;;2.38;;
37239;SDS011;23130;48.760;9.178;2023-04-25T11:39:59;4.70;;;2.50;;
37239;SDS011;23130;48.760;9.178;2023-04-25T11:42:25;2.75;;;1.70;;
37239;SDS011;23130;48.760;9.178;2023-04-25T11:44:51;2.35;;;1.50;;
37239;SDS011;23130;48.760;9.178;2023-04-25T11:47:17;2.63;;;1.88;;
37239;SDS011;23130;48.760;9.178;2023-04-25T11:49:42;3.42;;;1.52;;
37239;SDS011;23130;48.760;9.178;2023-04-25T11:52:08;2.47;;;1.70;;
37239;SDS011;23130;48.760;9.178;2023-04-25T11:54:37;2.50;;;1.73;;
37239;SDS011;23130;48.760;9.178;2023-04-25T11:57:03;4.28;;;2.72;;
37239;SDS011;23130;48.760;9.178;2023-04-25T11:59:29;5.43;;;2.97;;
37239;SDS011;23130;48.760;9.178;2023-04-25T12:01:56;3.45;;;2.40;;
37239;SDS011;23130;48.760;9.178;2023-04-25T12:04:23;5.13;;;3.25;;
37239;SDS011;23130;48.760;9.178;2023-04-25T12:06:50;3.85;;;2.80;;
37239;SDS011;23130;48.760;9.178;2023-04-25T12:09:35;6.82;;;3.70;;
37239;SDS011;23130;48.760;9.178;2023-04-25T12:12:01;5.55;;;3.70;;
37239;SDS011;23130;48.760;9.178;2023-04-25T12:14:34;4.78;;;3.35;;
37239;SDS011;23130;48.760;9.178;2023-04-25T12:17:01;4.78;;;3.90;;
37239;SDS011;23130;48.760;9.178;2023-04-25T12:19:32;6.07;;;3.47;;
37239;SDS011;23130;48.760;9.178;2023-04-25T12:22:00;5.07;;;3.78;;
37239;SDS011;23130;48.760;9.178;2023-04-25T12:24:44;4.55;;;3.63;;
37239;SDS011;23130;48.760;9.178;2023-04-25T12:27:10;5.65;;;3.42;;
37239;SDS011;23130;48.760;9.178;2023-04-25T12:29:35;5.72;;;3.03;;
37239;SDS011;23130;48.760;9.178;2023-04-25T12:32:01;6.40;;;3.38;;
37239;SDS011;23130;48.760;9.178;2023-04-25T12:34:27;5.80;;;2.70;;
37239;SDS011;23130;48.760;9.178;2023-04-25T12:36:53;7.65;;;4.38;;
37239;SDS011;23130;48.760;9.178;2023-04-25T12:39:20;5.75;;;3.05;;
37239;SDS011;23130;48.760;9.178;2023-04-25T12:41:47;4.88;;;3.47;;
37239;SDS011;23130;48.760;9.178;2023-04-25T12:44:13;7.32;;;3.88;;
37239;SDS011;23130;48.760;9.178;2023-04-25T12:46:38;7.22;;;3.65;;
37239;SDS011;23130;48.760;9.178;2023-04-25T12:49:05;8.25;;;4.95;;
37239;SDS011;23130;48.760;9.178;2023-04-25T12:51:32;6.70;;;4.45;;
37239;SDS011;23130;48.760;9.178;2023-04-25T12:53:59;7.95;;;4.53;;
37239;SDS011;23130;48.760;9.178;2023-04-25T12:56:25;7.72;;;4.30;;
37239;SDS011;23130;48.760;9.178;2023-04-25T12:58:52;5.82;;;3.92;;
37239;SDS011;23130;48.760;9.178;2023-04-25T13:01:18;4.82;;;4.30;;
37239;SDS011;23130;48.760;9.178;2023-04-25T13:03:45;6.25;;;4.07;;
37239;SDS011;23130;48.760;9.178;2023-04-25T13:06:11;5.55;;;3.88;;
37239;SDS011;23130;48.760;9.178;2023-04-25T13:08:37;5.63;;;3.75;;
37239;SDS011;23130;48.760;9.178;2023-04-25T13:11:04;6.85;;;3.95;;
37239;SDS011;23130;48.760;9.178;2023-04-25T13:13:30;8.25;;;4.57;;
37239;SDS011;23130;48.760;9.178;2023-04-25T13:15:56;6.65;;;4.20;;
37239;SDS011;23130;48.760;9.178;2023-04-25T13:18:22;7.25;;;3.95;;
37239;SDS011;23130;48.760;9.178;2023-04-25T13:20:51;6.85;;;3.53;;
37239;SDS011;23130;48.760;9.178;2023-04-25T13:23:17;7.60;;;4.35;;
37239;SDS011;23130;48.760;9.178;2023-04-25T13:25:43;5.80;;;4.20;;
37239;SDS011;23130;48.760;9.178;2023-04-25T13:28:09;7.05;;;4.03;;
37239;SDS011;23130;48.760;9.178;2023-04-25T13:30:34;7.70;;;4.43;;
37239;SDS011;23130;48.760;9.178;2023-04-25T13:33:00;9.32;;;5.18;;
37239;SDS011;23130;48.760;9.178;2023-04-25T13:35:28;6.80;;;4.93;;
37239;SDS011;23130;48.760;9.178;2023-04-25T13:37:54;6.68;;;4.40;;
37239;SDS011;23130;48.760;9.178;2023-04-25T13:40:20;9.15;;;4.28;;
37239;SDS011;23130;48.760;9.178;2023-04-25T13:42:45;8.27;;;5.40;;
37239;SDS011;23130;48.760;9.178;2023-04-25T13:45:11;7.88;;;4.45;;
37239;SDS011;23130;48.760;9.178;2023-04-25T13:47:37;7.07;;;4.72;;
37239;SDS011;23130;48.760;9.178;2023-04-25T13:50:05;5.55;;;4.68;;
37239;SDS011;23130;48.760;9.178;2023-04-25T13:52:32;12.30;;;6.95;;
37239;SDS011;23130;48.760;9.178;2023-04-25T13:54:58;9.05;;;5.95;;
37239;SDS011;23130;48.760;9.178;2023-04-25T13:57:24;10.18;;;5.25;;
37239;SDS011;23130;48.760;9.178;2023-04-25T13:59:50;7.70;;;5.63;;
37239;SDS011;23130;48.760;9.178;2023-04-25T14:02:16;8.32;;;5.53;;
37239;SDS011;23130;48.760;9.178;2023-04-25T14:04:41;7.70;;;5.65;;
37239;SDS011;23130;48.760;9.178;2023-04-25T14:07:07;7.07;;;5.85;;
37239;SDS011;23130;48.760;9.178;2023-04-25T14:09:33;6.95;;;5.88;;
37239;SDS011;23130;48.760;9.178;2023-04-25T14:11:59;9.32;;;6.03;;
37239;SDS011;23130;48.760;9.178;2023-04-25T14:14:25;8.30;;;5.30;;
37239;SDS011;23130;48.760;9.178;2023-04-25T14:16:51;11.05;;;6.25;;
37239;SDS011;23130;48.760;9.178;2023-04-25T14:19:18;7.47;;;5.68;;
37239;SDS011;23130;48.760;9.178;2023-04-25T14:21:45;8.77;;;5.35;;
37239;SDS011;23130;48.760;9.178;2023-04-25T14:24:11;7.35;;;5.13;;
37239;SDS011;23130;48.760;9.178;2023-04-25T14:26:38;8.68;;;5.25;;
37239;SDS011;23130;48.760;9.178;2023-04-25T14:29:04;7.55;;;5.38;;
37239;SDS011;23130;48.760;9.178;2023-04-25T14:31:31;9.48;;;5.93;;
37239;SDS011;23130;48.760;9.178;2023-04-25T14:33:57;10.35;;;6.25;;
37239;SDS011;23130;48.760;9.178;2023-04-25T14:36:23;7.03;;;4.85;;
37239;SDS011;23130;48.760;9.178;2023-04-25T14:38:48;6.53;;;4.25;;
37239;SDS011;23130;48.760;9.178;2023-04-25T14:41:14;5.80;;;4.07;;
37239;SDS011;23130;48.760;9.178;2023-04-25T14:43:40;5.65;;;3.70;;
37239;SDS011;23130;48.760;9.178;2023-04-25T14:46:06;5.82;;;3.58;;
37239;SDS011;23130;48.760;9.178;2023-04-25T14:48:32;4.82;;;3.20;;
37239;SDS011;23130;48.760;9.178;2023-04-25T14:50:58;7.47;;;4.45;;
37239;SDS011;23130;48.760;9.178;2023-04-25T14:53:25;5.55;;;3.90;;
37239;SDS011;23130;48.760;9.178;2023-04-25T14:55:50;5.53;;;4.00;;
37239;SDS011;23130;48.760;9.178;2023-04-25T14:58:16;4.20;;;3.25;;